Terminal Aerodrome Forecast
Issued by NWS

Home | Current Version | Previous Version | Text Only | Print | Product List | Glossary On
Versions: 1 2 3 4 5 6 7 8 9 10 11 12 13 14
734
FTPA31 PHFO 191722
TAFHJR
TAF
PHJR 191722Z 1918/2018 03009G18KT P6SM FEW045 BKN200
     FM192000 03012G22KT P6SM SCT045 BKN200
     FM200400 04008G16KT P6SM FEW025 SCT045 BKN200
     FM201300 06007KT P6SM BKN040=

USA.gov is the U.S. government's official web portal to all federal, state and local government web resources and services.